Time;durP1;ratioP1;P1;durP2;ratioP2;P2;SDS_P1;SDS_P2;PMS_P1;PMS_P2;Temp;Humidity;BMP_temperature;BMP_pressure;BME280_temperature;BME280_humidity;BME280_pressure;Samples;Min_cycle;Max_cycle;Signal;HPM_P1;HPM_P2
2022/10/17 00:00:05;;;;;;;;;;;;;;;;;;5035705;28;7334;-62
2022/10/17 00:02:30;;;;;;;;;;;;;;;;;;5035759;28;7183;-62
2022/10/17 00:04:56;;;;;;;;;;;;;;;;;;5034358;28;8727;-62
2022/10/17 00:07:21;;;;;;;;;;;;;;;;;;5034912;28;8785;-62
2022/10/17 00:09:47;;;;;;;;;;;;;;;;;;5035296;28;6925;-62
2022/10/17 00:12:12;;;;;;;;;;;;;;;;;;5035462;28;7265;-62
2022/10/17 00:14:38;;;;;;;;;;;;;;;;;;5035512;28;7225;-62
2022/10/17 00:17:04;;;;;;;;;;;;;;;;;;5035499;28;7115;-62
2022/10/17 00:19:29;;;;;;;;;;;;;;;;;;5035297;28;7300;-62
2022/10/17 00:21:55;;;;;;;;;;;;;;;;;;5034805;28;7414;-62
2022/10/17 00:24:20;;;;;;;;;;;;;;;;;;5035429;28;7134;-62
2022/10/17 00:26:46;;;;;;;;;;;;;;;;;;5035215;28;7153;-62
2022/10/17 00:29:11;;;;;;;;;;;;;;;;;;5035272;28;7087;-62
2022/10/17 00:31:37;;;;;;;;;;;;;;;;;;5035101;28;7123;-62
2022/10/17 00:34:02;;;;;;;;;;;;;;;;;;5034999;28;6937;-62
2022/10/17 00:36:28;;;;;;;;;;;;;;;;;;5035116;28;6937;-62
2022/10/17 00:38:55;;;;;;;;;;;;;;;;;;5034993;28;7206;-62
2022/10/17 00:41:23;;;;;;;;;;;;;;;;;;5035589;28;7208;-62
2022/10/17 00:43:51;;;;;;;;;;;;;;;;;;5033737;28;8443;-62
2022/10/17 00:46:18;;;;;;;;;;;;;;;;;;5035066;28;7249;-62
2022/10/17 00:48:44;;;;;;;;;;;;;;;;;;5034884;28;7576;-62
2022/10/17 00:51:10;;;;;;;;;;;;;;;;;;5035343;28;6955;-62
2022/10/17 00:53:38;;;;;;;;;;;;;;;;;;5035727;28;7159;-62
2022/10/17 00:56:04;;;;;;;;;;;;;;;;;;5034510;28;7944;-62
2022/10/17 00:58:29;;;;;;;;;;;;;;;;;;5034841;28;7013;-62
2022/10/17 01:00:55;;;;;;;;;;;;;;;;;;5035132;28;7267;-62
2022/10/17 01:03:20;;;;;;;;;;;;;;;;;;5035630;28;7110;-62
2022/10/17 01:05:46;;;;;;;;;;;;;;;;;;5034752;28;7135;-62
2022/10/17 01:08:12;;;;;;;;;;;;;;;;;;5034773;28;7114;-62
2022/10/17 01:10:53;;;;;;;;;;;;;;;;;;5034716;28;7127;-62
2022/10/17 01:13:37;;;;;;;;;;;;;;;;;;5034625;28;7155;-62
2022/10/17 01:16:21;;;;;;;;;;;;;;;;;;5034284;28;8011;-62
2022/10/17 01:19:00;;;;;;;;;;;;;;;;;;5034922;28;6885;-62
2022/10/17 01:21:37;;;;;;;;;;;;;;;;;;5034677;28;7190;-62
2022/10/17 01:24:28;;;;;;;;;;;;;;;;;;5034601;28;7595;-62
2022/10/17 01:26:57;;;;;;;;;;;;;;;;;;5034352;28;7181;-62
2022/10/17 01:29:34;;;;;;;;;;;;;;;;;;5034574;28;7290;-62
2022/10/17 01:32:00;;;;;;;;;;;;;;;;;;5034360;28;7178;-62
2022/10/17 01:34:52;;;;;;;;;;;;;;;;;;5036890;28;7421;-62
2022/10/17 01:37:26;;;;;;;;;;;;;;;;;;5037209;28;7045;-62
2022/10/17 01:39:56;;;;;;;;;;;;;;;;;;5038307;28;7204;-62
2022/10/17 01:42:22;;;;;;;;;;;;;;;;;;5038022;28;7344;-62
2022/10/17 01:44:47;;;;;;;;;;;;;;;;;;5038308;28;7406;-62
2022/10/17 01:47:17;;;;;;;;;;;;;;;;;;5038916;28;7595;-62
2022/10/17 01:49:45;;;;;;;;;;;;;;;;;;5038202;28;6949;-62
2022/10/17 01:52:14;;;;;;;;;;;;;;;;;;5038060;28;7176;-62
2022/10/17 01:55:11;;;;;;;;;;;;;;;;;;5038356;28;7142;-62
2022/10/17 01:57:45;;;;;;;;;;;;;;;;;;5033613;28;7392;-62
2022/10/17 02:00:16;;;;;;;;;;;;;;;;;;5038106;28;7252;-62
2022/10/17 02:02:44;;;;;;;;;;;;;;;;;;5038000;28;7100;-62
2022/10/17 02:05:10;;;;;;;;;;;;;;;;;;5038014;28;7189;-62
2022/10/17 02:07:36;;;;;;;;;;;;;;;;;;5038008;28;7197;-62
2022/10/17 02:10:03;;;;;;;;;;;;;;;;;;5038626;28;7171;-62
2022/10/17 02:12:36;;;;;;;;;;;;;;;;;;5037699;28;7085;-62
2022/10/17 02:15:20;;;;;;;;;;;;;;;;;;5038385;28;6815;-62
2022/10/17 02:18:00;;;;;;;;;;;;;;;;;;5037813;28;7592;-62
2022/10/17 02:20:53;;;;;;;;;;;;;;;;;;5037602;28;6919;-62
2022/10/17 02:23:57;;;;;;;;;;;;;;;;;;5036162;28;7222;-62
2022/10/17 02:26:33;;;;;;;;;;;;;;;;;;5015902;28;7392;-62
2022/10/17 02:29:01;;;;;;;;;;;;;;;;;;5015570;28;7114;-62
2022/10/17 02:31:47;;;;;;;;;;;;;;;;;;5015648;28;7289;-62
2022/10/17 02:34:24;;;;;;;;;;;;;;;;;;5015237;28;7630;-62
2022/10/17 02:36:56;;;;;;;;;;;;;;;;;;5015559;28;7151;-62
2022/10/17 02:39:25;;;;;;;;;;;;;;;;;;5015466;28;7129;-62
2022/10/17 02:41:55;;;;;;;;;;;;;;;;;;5015900;28;7005;-62
2022/10/17 02:44:22;;;;;;;;;;;;;;;;;;5015694;28;7219;-62
2022/10/17 02:46:55;;;;;;;;;;;;;;;;;;5015654;28;7222;-62
2022/10/17 02:49:25;;;;;;;;;;;;;;;;;;5015254;28;7185;-62
2022/10/17 02:52:03;;;;;;;;;;;;;;;;;;5015354;28;7325;-62
2022/10/17 02:54:41;;;;;;;;;;;;;;;;;;5015819;28;7140;-62
2022/10/17 02:57:06;;;;;;;;;;;;;;;;;;5025683;28;7434;-62
2022/10/17 02:59:35;;;;;;;;;;;;;;;;;;5036922;28;7102;-62
2022/10/17 03:02:04;;;;;;;;;;;;;;;;;;5037375;28;7164;-62
2022/10/17 03:04:30;;;;;;;;;;;;;;;;;;5036666;28;7057;-62
2022/10/17 03:06:55;;;;;;;;;;;;;;;;;;5036867;28;7122;-62
2022/10/17 03:09:21;;;;;;;;;;;;;;;;;;5036739;28;7001;-62
2022/10/17 03:11:46;;;;;;;;;;;;;;;;;;5036672;28;7338;-62
2022/10/17 03:14:11;;;;;;;;;;;;;;;;;;5036765;28;7088;-62
2022/10/17 03:16:37;;;;;;;;;;;;;;;;;;5036612;28;7009;-62
2022/10/17 03:19:03;;;;;;;;;;;;;;;;;;5036893;28;7077;-62
2022/10/17 03:21:28;;;;;;;;;;;;;;;;;;5036882;28;7002;-62
2022/10/17 03:23:54;;;;;;;;;;;;;;;;;;5036936;28;7283;-62
2022/10/17 03:26:20;;;;;;;;;;;;;;;;;;5036538;28;7090;-62
2022/10/17 03:28:45;;;;;;;;;;;;;;;;;;5036292;28;7082;-62
2022/10/17 03:31:16;;;;;;;;;;;;;;;;;;5035598;28;8367;-62
2022/10/17 03:33:42;;;;;;;;;;;;;;;;;;5036295;28;7390;-62
2022/10/17 03:36:09;;;;;;;;;;;;;;;;;;5036288;28;6933;-62
2022/10/17 03:38:38;;;;;;;;;;;;;;;;;;5036301;28;7024;-62
2022/10/17 03:41:04;;;;;;;;;;;;;;;;;;5035818;28;6951;-62
2022/10/17 03:43:30;;;;;;;;;;;;;;;;;;5036195;28;7417;-62
2022/10/17 03:45:58;;;;;;;;;;;;;;;;;;5036071;28;7027;-62
2022/10/17 03:48:24;;;;;;;;;;;;;;;;;;5036015;28;7111;-62
2022/10/17 03:50:50;;;;;;;;;;;;;;;;;;5036512;28;6964;-62
2022/10/17 03:53:16;;;;;;;;;;;;;;;;;;5036181;28;7386;-62
2022/10/17 03:55:42;;;;;;;;;;;;;;;;;;5035220;28;7272;-62
2022/10/17 03:58:07;;;;;;;;;;;;;;;;;;5035499;28;7203;-62
2022/10/17 04:00:34;;;;;;;;;;;;;;;;;;5035470;28;6987;-62
2022/10/17 04:03:00;;;;;;;;;;;;;;;;;;5035428;28;7225;-62
2022/10/17 04:05:26;;;;;;;;;;;;;;;;;;5035719;28;6976;-62
2022/10/17 04:07:51;;;;;;;;;;;;;;;;;;5035474;28;7140;-62
2022/10/17 04:10:17;;;;;;;;;;;;;;;;;;5035610;28;7258;-62
2022/10/17 04:12:42;;;;;;;;;;;;;;;;;;5035425;28;7045;-62
2022/10/17 04:15:08;;;;;;;;;;;;;;;;;;5035628;28;7095;-62
2022/10/17 04:17:33;;;;;;;;;;;;;;;;;;5035373;28;6939;-62
2022/10/17 04:19:59;;;;;;;;;;;;;;;;;;5036006;28;6927;-62
2022/10/17 04:22:24;;;;;;;;;;;;;;;;;;5035027;28;6935;-62
2022/10/17 04:24:50;;;;;;;;;;;;;;;;;;5035411;28;7109;-62
2022/10/17 04:27:15;;;;;;;;;;;;;;;;;;5034098;28;8484;-62
2022/10/17 04:29:42;;;;;;;;;;;;;;;;;;5035169;28;6799;-62
2022/10/17 04:32:08;;;;;;;;;;;;;;;;;;5035246;28;7071;-62
2022/10/17 04:34:34;;;;;;;;;;;;;;;;;;5035171;28;7190;-62
2022/10/17 04:36:59;;;;;;;;;;;;;;;;;;5034198;28;8794;-62
2022/10/17 04:39:25;;;;;;;;;;;;;;;;;;5035939;28;7199;-62
2022/10/17 04:41:50;;;;;;;;;;;;;;;;;;5034755;28;7074;-62
2022/10/17 04:44:16;;;;;;;;;;;;;;;;;;5035080;28;7088;-62
2022/10/17 04:46:41;;;;;;;;;;;;;;;;;;5034950;28;7129;-62
2022/10/17 04:49:07;;;;;;;;;;;;;;;;;;5034904;28;7518;-62
2022/10/17 04:51:32;;;;;;;;;;;;;;;;;;5034709;28;6985;-62
2022/10/17 04:53:58;;;;;;;;;;;;;;;;;;5034865;28;6946;-62
2022/10/17 04:56:24;;;;;;;;;;;;;;;;;;5034929;28;6925;-62
2022/10/17 04:58:50;;;;;;;;;;;;;;;;;;5035602;28;6915;-62
2022/10/17 05:01:18;;;;;;;;;;;;;;;;;;5034504;28;7221;-62
2022/10/17 05:03:44;;;;;;;;;;;;;;;;;;5034909;28;7154;-62
2022/10/17 05:06:13;;;;;;;;;;;;;;;;;;5034835;28;7063;-62
2022/10/17 05:08:39;;;;;;;;;;;;;;;;;;5034158;28;7081;-62
2022/10/17 05:11:15;;;;;;;;;;;;;;;;;;5034662;28;7157;-62
2022/10/17 05:13:40;;;;;;;;;;;;;;;;;;5034579;28;7117;-62
2022/10/17 05:16:06;;;;;;;;;;;;;;;;;;5034593;28;7174;-62
2022/10/17 05:18:31;;;;;;;;;;;;;;;;;;5034271;28;7179;-62
2022/10/17 05:20:57;;;;;;;;;;;;;;;;;;5034735;28;6944;-62
2022/10/17 05:23:23;;;;;;;;;;;;;;;;;;5034156;28;7081;-62
2022/10/17 05:25:53;;;;;;;;;;;;;;;;;;5034264;28;8017;-62
2022/10/17 05:28:18;;;;;;;;;;;;;;;;;;5034756;28;7484;-62
2022/10/17 05:30:44;;;;;;;;;;;;;;;;;;5034159;28;6914;-62
2022/10/17 05:33:09;;;;;;;;;;;;;;;;;;5034115;28;7072;-62
2022/10/17 05:35:35;;;;;;;;;;;;;;;;;;5034428;28;7381;-62
2022/10/17 05:38:01;;;;;;;;;;;;;;;;;;5034121;28;7022;-62
2022/10/17 05:40:26;;;;;;;;;;;;;;;;;;5034334;28;7366;-62
2022/10/17 05:42:52;;;;;;;;;;;;;;;;;;5034469;28;7221;-62
2022/10/17 05:45:18;;;;;;;;;;;;;;;;;;5034441;28;7061;-62
2022/10/17 05:47:43;;;;;;;;;;;;;;;;;;5034117;28;7145;-62
2022/10/17 05:50:09;;;;;;;;;;;;;;;;;;5034196;28;7209;-62
2022/10/17 05:52:35;;;;;;;;;;;;;;;;;;5035216;28;6990;-62
2022/10/17 05:55:00;;;;;;;;;;;;;;;;;;5033933;28;7209;-62
2022/10/17 05:57:26;;;;;;;;;;;;;;;;;;5034372;28;7041;-62
2022/10/17 05:59:52;;;;;;;;;;;;;;;;;;5034120;28;7228;-62
2022/10/17 06:02:18;;;;;;;;;;;;;;;;;;5035051;28;6977;-62
2022/10/17 06:04:48;;;;;;;;;;;;;;;;;;5034252;28;7075;-62
2022/10/17 06:07:14;;;;;;;;;;;;;;;;;;5034184;28;7267;-62
2022/10/17 06:09:40;;;;;;;;;;;;;;;;;;5034104;28;7047;-62
2022/10/17 06:12:06;;;;;;;;;;;;;;;;;;5034084;28;7087;-62
2022/10/17 06:14:32;;;;;;;;;;;;;;;;;;5034098;28;7131;-62
2022/10/17 06:16:58;;;;;;;;;;;;;;;;;;5034231;28;7004;-62
2022/10/17 06:19:23;;;;;;;;;;;;;;;;;;5034474;28;6996;-62
2022/10/17 06:21:49;;;;;;;;;;;;;;;;;;5037613;28;7102;-62
2022/10/17 06:24:15;;;;;;;;;;;;;;;;;;5037720;28;7346;-62
2022/10/17 06:26:42;;;;;;;;;;;;;;;;;;5037543;28;7017;-62
2022/10/17 06:29:07;;;;;;;;;;;;;;;;;;5037337;28;7091;-62
2022/10/17 06:31:33;;;;;;;;;;;;;;;;;;5036981;28;7070;-62
2022/10/17 06:33:58;;;;;;;;;;;;;;;;;;5037156;28;8247;-62
2022/10/17 06:36:24;;;;;;;;;;;;;;;;;;5037442;28;7202;-62
2022/10/17 06:38:49;;;;;;;;;;;;;;;;;;5037339;28;7038;-62
2022/10/17 06:41:17;;;;;;;;;;;;;;;;;;5036944;28;7044;-62
2022/10/17 06:43:47;;;;;;;;;;;;;;;;;;5037214;28;6937;-62
2022/10/17 06:46:17;;;;;;;;;;;;;;;;;;5037086;28;7110;-62
2022/10/17 06:48:54;;;;;;;;;;;;;;;;;;5036892;28;6952;-62
2022/10/17 06:51:20;;;;;;;;;;;;;;;;;;5036846;28;7029;-62
2022/10/17 06:53:46;;;;;;;;;;;;;;;;;;5037869;28;7085;-62
2022/10/17 06:56:11;;;;;;;;;;;;;;;;;;5036732;28;7221;-62
2022/10/17 06:58:38;;;;;;;;;;;;;;;;;;5035680;28;7122;-62
2022/10/17 07:01:08;;;;;;;;;;;;;;;;;;5035620;28;7512;-62
2022/10/17 07:03:34;;;;;;;;;;;;;;;;;;5035273;28;7340;-62
2022/10/17 07:05:59;;;;;;;;;;;;;;;;;;5035624;28;6948;-62
2022/10/17 07:08:25;;;;;;;;;;;;;;;;;;5035430;28;7061;-62
2022/10/17 07:10:52;;;;;;;;;;;;;;;;;;5035390;28;7149;-62
2022/10/17 07:13:18;;;;;;;;;;;;;;;;;;5035910;28;7033;-62
2022/10/17 07:15:44;;;;;;;;;;;;;;;;;;5035322;28;7161;-62
2022/10/17 07:18:10;;;;;;;;;;;;;;;;;;5036609;28;6969;-62
2022/10/17 07:20:35;;;;;;;;;;;;;;;;;;5036508;28;6998;-62
2022/10/17 07:23:01;;;;;;;;;;;;;;;;;;5036488;28;7356;-62
2022/10/17 07:25:28;;;;;;;;;;;;;;;;;;5036820;28;6959;-62
2022/10/17 07:27:53;;;;;;;;;;;;;;;;;;5036442;28;7041;-62
2022/10/17 07:30:20;;;;;;;;;;;;;;;;;;5036040;28;6988;-62
2022/10/17 07:32:46;;;;;;;;;;;;;;;;;;5036384;28;7392;-62
2022/10/17 07:35:12;;;;;;;;;;;;;;;;;;5036553;28;7159;-62
2022/10/17 07:37:38;;;;;;;;;;;;;;;;;;5037165;28;6958;-62
2022/10/17 07:40:05;;;;;;;;;;;;;;;;;;5035089;28;8462;-62
2022/10/17 07:42:32;;;;;;;;;;;;;;;;;;5036024;28;7036;-62
2022/10/17 07:44:57;;;;;;;;;;;;;;;;;;5036187;28;7096;-62
2022/10/17 07:47:23;;;;;;;;;;;;;;;;;;5035143;28;6938;-62
2022/10/17 07:49:48;;;;;;;;;;;;;;;;;;5035341;28;7475;-62
2022/10/17 07:52:15;;;;;;;;;;;;;;;;;;5035605;28;6955;-62
2022/10/17 07:54:40;;;;;;;;;;;;;;;;;;5035571;28;7074;-62
2022/10/17 07:57:06;;;;;;;;;;;;;;;;;;5035787;28;7367;-62
2022/10/17 07:59:31;;;;;;;;;;;;;;;;;;5035388;28;7029;-62
2022/10/17 08:01:58;;;;;;;;;;;;;;;;;;5035671;28;7025;-62
2022/10/17 08:04:24;;;;;;;;;;;;;;;;;;5035816;28;7208;-62
2022/10/17 08:06:50;;;;;;;;;;;;;;;;;;5035680;28;7096;-62
2022/10/17 08:09:16;;;;;;;;;;;;;;;;;;5035650;28;7366;-62
2022/10/17 08:11:44;;;;;;;;;;;;;;;;;;5035697;28;7113;-62
2022/10/17 08:14:11;;;;;;;;;;;;;;;;;;5035486;28;6974;-62
2022/10/17 08:16:36;;;;;;;;;;;;;;;;;;5035557;28;7058;-62
2022/10/17 08:19:03;;;;;;;;;;;;;;;;;;5035143;28;7083;-62
2022/10/17 08:21:30;;;;;;;;;;;;;;;;;;5034983;28;7083;-62
2022/10/17 08:23:55;;;;;;;;;;;;;;;;;;5034761;28;7205;-62
2022/10/17 08:26:21;;;;;;;;;;;;;;;;;;5034978;28;7082;-62
2022/10/17 08:28:48;;;;;;;;;;;;;;;;;;5035320;28;6937;-62
2022/10/17 08:31:17;;;;;;;;;;;;;;;;;;5034746;28;7251;-62
2022/10/17 08:33:44;;;;;;;;;;;;;;;;;;5034600;28;7367;-62
2022/10/17 08:36:12;;;;;;;;;;;;;;;;;;5035014;28;7186;-62
2022/10/17 08:38:38;;;;;;;;;;;;;;;;;;5034964;28;6954;-62
2022/10/17 08:41:30;;;;;;;;;;;;;;;;;;5034836;28;7441;-62
2022/10/17 08:44:02;;;;;;;;;;;;;;;;;;5033201;28;7344;-62
2022/10/17 08:46:31;;;;;;;;;;;;;;;;;;5034980;28;7418;-62
2022/10/17 08:48:59;;;;;;;;;;;;;;;;;;5034937;28;7397;-62
2022/10/17 08:51:31;;;;;;;;;;;;;;;;;;5034941;28;7415;-62
2022/10/17 08:53:56;;;;;;;;;;;;;;;;;;5035195;28;7006;-62
2022/10/17 08:56:39;;;;;;;;;;;;;;;;;;5029993;28;7054;-62
2022/10/17 08:59:11;;;;;;;;;;;;;;;;;;5034474;28;6963;-62
2022/10/17 09:01:36;;;;;;;;;;;;;;;;;;5034127;28;7116;-62
2022/10/17 09:04:20;;;;;;;;;;;;;;;;;;5033700;28;7187;-62
2022/10/17 09:07:04;;;;;;;;;;;;;;;;;;5034553;28;7229;-62
2022/10/17 09:09:44;;;;;;;;;;;;;;;;;;5034423;28;6961;-62
2022/10/17 09:12:09;;;;;;;;;;;;;;;;;;5033618;28;7258;-62
2022/10/17 09:14:53;;;;;;;;;;;;;;;;;;5034424;28;6832;-62
2022/10/17 09:17:28;;;;;;;;;;;;;;;;;;5034555;28;7455;-62
2022/10/17 09:20:03;;;;;;;;;;;;;;;;;;5033810;28;7418;-62
2022/10/17 09:22:42;;;;;;;;;;;;;;;;;;5034116;28;7052;-62
2022/10/17 09:25:13;;;;;;;;;;;;;;;;;;5034029;28;7093;-63
2022/10/17 09:27:57;;;;;;;;;;;;;;;;;;5034337;28;7273;-62
2022/10/17 09:30:32;;;;;;;;;;;;;;;;;;5034159;28;7319;-62
2022/10/17 09:32:57;;;;;;;;;;;;;;;;;;5034492;28;7099;-62
2022/10/17 09:35:26;;;;;;;;;;;;;;;;;;5034393;28;7193;-62
2022/10/17 09:37:52;;;;;;;;;;;;;;;;;;5034456;28;7245;-62
2022/10/17 09:40:23;;;;;;;;;;;;;;;;;;5034051;28;7385;-62
2022/10/17 09:42:50;;;;;;;;;;;;;;;;;;5034456;28;7444;-62
2022/10/17 09:45:25;;;;;;;;;;;;;;;;;;5034465;28;7236;-62
2022/10/17 09:48:09;;;;;;;;;;;;;;;;;;5034132;28;7282;-62
2022/10/17 09:50:34;;;;;;;;;;;;;;;;;;5034765;28;6966;-62
2022/10/17 09:53:15;;;;;;;;;;;;;;;;;;5034342;28;6988;-63
2022/10/17 09:55:51;;;;;;;;;;;;;;;;;;5031711;28;6981;-62
2022/10/17 09:58:19;;;;;;;;;;;;;;;;;;5037536;28;6985;-62
2022/10/17 10:00:47;;;;;;;;;;;;;;;;;;5037552;28;7207;-62
2022/10/17 10:03:15;;;;;;;;;;;;;;;;;;5037385;28;7227;-62
2022/10/17 10:05:42;;;;;;;;;;;;;;;;;;5037662;28;7216;-62
2022/10/17 10:08:15;;;;;;;;;;;;;;;;;;5037682;28;7049;-62
2022/10/17 10:10:42;;;;;;;;;;;;;;;;;;5037130;28;6992;-63
2022/10/17 10:13:13;;;;;;;;;;;;;;;;;;5037786;28;6965;-62
2022/10/17 10:15:42;;;;;;;;;;;;;;;;;;5037486;28;6984;-62
2022/10/17 10:18:23;;;;;;;;;;;;;;;;;;5037276;28;6935;-62
2022/10/17 10:21:02;;;;;;;;;;;;;;;;;;5037556;28;7613;-62
2022/10/17 10:23:28;;;;;;;;;;;;;;;;;;5035961;28;6945;-62
2022/10/17 10:25:56;;;;;;;;;;;;;;;;;;5036423;28;7954;-62
2022/10/17 10:28:30;;;;;;;;;;;;;;;;;;5037134;28;7067;-62
2022/10/17 10:30:58;;;;;;;;;;;;;;;;;;5035999;28;7049;-62
2022/10/17 10:33:27;;;;;;;;;;;;;;;;;;5036751;28;7034;-62
2022/10/17 10:35:58;;;;;;;;;;;;;;;;;;5036815;28;6970;-62
2022/10/17 10:38:24;;;;;;;;;;;;;;;;;;5037056;28;7270;-62
2022/10/17 10:40:53;;;;;;;;;;;;;;;;;;5037131;28;7058;-62
2022/10/17 10:43:22;;;;;;;;;;;;;;;;;;5037283;28;7242;-62
2022/10/17 10:45:48;;;;;;;;;;;;;;;;;;5035050;28;6994;-62
2022/10/17 10:48:22;;;;;;;;;;;;;;;;;;5034703;28;6973;-62
2022/10/17 10:51:03;;;;;;;;;;;;;;;;;;5035264;28;7085;-62
2022/10/17 10:53:38;;;;;;;;;;;;;;;;;;5035315;28;7248;-62
2022/10/17 10:56:15;;;;;;;;;;;;;;;;;;5034451;28;6990;-62
2022/10/17 10:58:53;;;;;;;;;;;;;;;;;;5035325;28;8278;-62
2022/10/17 11:01:42;;;;;;;;;;;;;;;;;;5036713;28;7390;-62
2022/10/17 11:04:26;;;;;;;;;;;;;;;;;;5036728;28;7020;-62
2022/10/17 11:06:57;;;;;;;;;;;;;;;;;;5036291;28;7129;-63
2022/10/17 11:09:30;;;;;;;;;;;;;;;;;;5035806;28;7391;-63
2022/10/17 11:12:06;;;;;;;;;;;;;;;;;;5036469;28;7070;-63
2022/10/17 11:14:43;;;;;;;;;;;;;;;;;;5036454;28;7067;-63
2022/10/17 11:17:17;;;;;;;;;;;;;;;;;;5035655;28;6974;-62
2022/10/17 11:19:50;;;;;;;;;;;;;;;;;;5036710;28;7106;-63
2022/10/17 11:22:28;;;;;;;;;;;;;;;;;;5035886;28;7123;-63
2022/10/17 11:24:58;;;;;;;;;;;;;;;;;;5036002;28;7151;-63
2022/10/17 11:27:27;;;;;;;;;;;;;;;;;;5036013;28;7242;-63
2022/10/17 11:29:52;;;;;;;;;;;;;;;;;;5035968;28;6974;-62
2022/10/17 11:32:24;;;;;;;;;;;;;;;;;;5035665;28;7479;-62
2022/10/17 11:35:02;;;;;;;;;;;;;;;;;;5036131;28;7283;-62
2022/10/17 11:37:32;;;;;;;;;;;;;;;;;;5036156;28;6977;-62
2022/10/17 11:40:16;;;;;;;;;;;;;;;;;;5035617;28;7062;-62
2022/10/17 11:42:53;;;;;;;;;;;;;;;;;;5035830;28;7523;-62
2022/10/17 11:45:22;;;;;;;;;;;;;;;;;;5036169;28;7187;-62
2022/10/17 11:47:53;;;;;;;;;;;;;;;;;;5035457;28;7206;-62
2022/10/17 11:50:39;;;;;;;;;;;;;;;;;;5035798;28;7216;-62
2022/10/17 11:53:12;;;;;;;;;;;;;;;;;;5033874;28;7974;-62
2022/10/17 11:55:39;;;;;;;;;;;;;;;;;;5034383;28;8428;-62
2022/10/17 11:58:23;;;;;;;;;;;;;;;;;;5035386;28;7220;-62
2022/10/17 12:00:49;;;;;;;;;;;;;;;;;;5032521;28;7074;-62
2022/10/17 12:03:14;;;;;;;;;;;;;;;;;;5035483;28;8373;-62
2022/10/17 12:05:40;;;;;;;;;;;;;;;;;;5035535;28;7101;-62
2022/10/17 12:08:05;;;;;;;;;;;;;;;;;;5035275;28;7433;-61
2022/10/17 12:10:54;;;;;;;;;;;;;;;;;;5034744;28;7222;-63
2022/10/17 12:13:25;;;;;;;;;;;;;;;;;;5029289;28;7261;-62
2022/10/17 12:15:51;;;;;;;;;;;;;;;;;;5034753;28;7357;-62
2022/10/17 12:18:17;;;;;;;;;;;;;;;;;;5035114;28;7417;-62
2022/10/17 12:20:54;;;;;;;;;;;;;;;;;;5034985;28;7150;-62
2022/10/17 12:23:24;;;;;;;;;;;;;;;;;;5033359;28;8439;-62
2022/10/17 12:26:09;;;;;;;;;;;;;;;;;;5035216;28;7041;-62
2022/10/17 12:28:43;;;;;;;;;;;;;;;;;;5034941;28;7239;-62
2022/10/17 12:31:22;;;;;;;;;;;;;;;;;;5034709;28;7068;-62
2022/10/17 12:33:50;;;;;;;;;;;;;;;;;;5034916;28;7468;-62
2022/10/17 12:36:21;;;;;;;;;;;;;;;;;;5034628;28;7219;-62
2022/10/17 12:38:49;;;;;;;;;;;;;;;;;;5034361;28;7371;-62
2022/10/17 12:41:15;;;;;;;;;;;;;;;;;;5034752;28;7234;-62
2022/10/17 12:43:49;;;;;;;;;;;;;;;;;;5034964;28;6999;-62
2022/10/17 12:46:33;;;;;;;;;;;;;;;;;;5034360;28;7099;-62
2022/10/17 12:49:01;;;;;;;;;;;;;;;;;;5035376;28;7256;-62
2022/10/17 12:51:28;;;;;;;;;;;;;;;;;;5034687;28;7592;-62
2022/10/17 12:53:59;;;;;;;;;;;;;;;;;;5033746;28;7228;-62
2022/10/17 12:56:31;;;;;;;;;;;;;;;;;;5034590;28;7142;-62
2022/10/17 12:59:00;;;;;;;;;;;;;;;;;;5034691;28;7287;-62
2022/10/17 13:01:28;;;;;;;;;;;;;;;;;;5034166;28;7039;-62
2022/10/17 13:03:55;;;;;;;;;;;;;;;;;;5034732;28;7220;-62
2022/10/17 13:06:26;;;;;;;;;;;;;;;;;;5034265;28;7134;-62
2022/10/17 13:09:01;;;;;;;;;;;;;;;;;;5033854;28;7001;-62
2022/10/17 13:11:29;;;;;;;;;;;;;;;;;;5034418;28;7167;-62
2022/10/17 13:13:58;;;;;;;;;;;;;;;;;;5034257;28;7290;-62
2022/10/17 13:16:26;;;;;;;;;;;;;;;;;;5034127;28;6944;-62
2022/10/17 13:18:52;;;;;;;;;;;;;;;;;;5034236;28;7315;-62
2022/10/17 13:21:18;;;;;;;;;;;;;;;;;;5034991;28;7418;-62
2022/10/17 13:23:44;;;;;;;;;;;;;;;;;;5033570;28;7314;-62
2022/10/17 13:26:15;;;;;;;;;;;;;;;;;;5034346;28;7238;-62
2022/10/17 13:28:43;;;;;;;;;;;;;;;;;;5034943;28;7291;-62
2022/10/17 13:31:27;;;;;;;;;;;;;;;;;;5037960;28;7008;-62
2022/10/17 13:33:56;;;;;;;;;;;;;;;;;;5038313;28;7256;-62
2022/10/17 13:36:21;;;;;;;;;;;;;;;;;;5038241;28;7219;-62
2022/10/17 13:38:47;;;;;;;;;;;;;;;;;;5037724;28;7423;-62
2022/10/17 13:41:15;;;;;;;;;;;;;;;;;;5038233;28;7207;-62
2022/10/17 13:43:41;;;;;;;;;;;;;;;;;;5038220;28;7022;-62
2022/10/17 13:46:17;;;;;;;;;;;;;;;;;;5037242;28;8181;-62
2022/10/17 13:48:43;;;;;;;;;;;;;;;;;;5036687;28;8330;-62
2022/10/17 13:51:12;;;;;;;;;;;;;;;;;;5038196;28;7169;-62
2022/10/17 13:53:40;;;;;;;;;;;;;;;;;;5037301;28;7223;-62
2022/10/17 13:56:17;;;;;;;;;;;;;;;;;;5037785;28;7265;-62
2022/10/17 13:58:45;;;;;;;;;;;;;;;;;;5037760;28;7178;-62
2022/10/17 14:01:13;;;;;;;;;;;;;;;;;;5037675;28;6967;-62
2022/10/17 14:03:42;;;;;;;;;;;;;;;;;;5037470;28;7162;-62
2022/10/17 14:06:22;;;;;;;;;;;;;;;;;;5037862;28;6844;-62
2022/10/17 14:08:59;;;;;;;;;;;;;;;;;;5037550;28;7057;-62
2022/10/17 14:11:29;;;;;;;;;;;;;;;;;;5037692;28;7131;-62
2022/10/17 14:13:56;;;;;;;;;;;;;;;;;;5037193;28;6961;-62
2022/10/17 14:16:24;;;;;;;;;;;;;;;;;;5037479;28;7191;-62
2022/10/17 14:18:51;;;;;;;;;;;;;;;;;;5037177;28;7146;-62
2022/10/17 14:21:22;;;;;;;;;;;;;;;;;;5037168;28;6996;-62
2022/10/17 14:23:49;;;;;;;;;;;;;;;;;;5037387;28;7219;-62
2022/10/17 14:26:18;;;;;;;;;;;;;;;;;;5037386;28;7262;-62
2022/10/17 14:28:46;;;;;;;;;;;;;;;;;;5036426;28;7348;-62
2022/10/17 14:31:18;;;;;;;;;;;;;;;;;;5037348;28;6954;-62
2022/10/17 14:33:45;;;;;;;;;;;;;;;;;;5037606;28;7251;-62
2022/10/17 14:36:11;;;;;;;;;;;;;;;;;;5037047;28;7573;-62
2022/10/17 14:38:38;;;;;;;;;;;;;;;;;;5037116;28;7310;-62
2022/10/17 14:41:21;;;;;;;;;;;;;;;;;;5036439;28;7444;-62
2022/10/17 14:43:55;;;;;;;;;;;;;;;;;;5036780;28;7268;-62
2022/10/17 14:46:21;;;;;;;;;;;;;;;;;;5036860;28;6977;-62
2022/10/17 14:48:51;;;;;;;;;;;;;;;;;;5036813;28;7224;-62
2022/10/17 14:51:17;;;;;;;;;;;;;;;;;;5036575;28;7203;-62
2022/10/17 14:53:58;;;;;;;;;;;;;;;;;;5037068;28;7035;-62
2022/10/17 14:56:42;;;;;;;;;;;;;;;;;;5036393;28;7212;-62
2022/10/17 14:59:09;;;;;;;;;;;;;;;;;;5035610;28;7271;-62
2022/10/17 15:01:35;;;;;;;;;;;;;;;;;;5036676;28;7235;-62
2022/10/17 15:04:02;;;;;;;;;;;;;;;;;;5036799;28;7117;-62
2022/10/17 15:06:29;;;;;;;;;;;;;;;;;;5035997;28;7194;-62
2022/10/17 15:08:56;;;;;;;;;;;;;;;;;;5036597;28;7296;-62
2022/10/17 15:11:22;;;;;;;;;;;;;;;;;;5036286;28;7081;-62
2022/10/17 15:13:48;;;;;;;;;;;;;;;;;;5035658;28;7186;-61
2022/10/17 15:16:19;;;;;;;;;;;;;;;;;;5036110;28;6872;-61
2022/10/17 15:18:45;;;;;;;;;;;;;;;;;;5036099;28;7157;-62
2022/10/17 15:21:14;;;;;;;;;;;;;;;;;;5036041;28;6949;-62
2022/10/17 15:23:41;;;;;;;;;;;;;;;;;;5035407;28;6960;-62
2022/10/17 15:26:19;;;;;;;;;;;;;;;;;;5036251;28;7362;-62
2022/10/17 15:28:46;;;;;;;;;;;;;;;;;;5035757;28;7003;-62
2022/10/17 15:31:13;;;;;;;;;;;;;;;;;;5036092;28;7174;-62
2022/10/17 15:33:39;;;;;;;;;;;;;;;;;;5036061;28;7401;-62
2022/10/17 15:36:17;;;;;;;;;;;;;;;;;;5035802;28;7396;-62
2022/10/17 15:38:43;;;;;;;;;;;;;;;;;;5036041;28;7116;-62
2022/10/17 15:41:10;;;;;;;;;;;;;;;;;;5036089;28;7573;-62
2022/10/17 15:43:35;;;;;;;;;;;;;;;;;;5035249;28;7388;-62
2022/10/17 15:46:01;;;;;;;;;;;;;;;;;;5035691;28;7107;-62
2022/10/17 15:48:30;;;;;;;;;;;;;;;;;;5034583;28;8187;-62
2022/10/17 15:50:56;;;;;;;;;;;;;;;;;;5034932;28;7269;-62
2022/10/17 15:53:22;;;;;;;;;;;;;;;;;;5034511;28;7125;-62
2022/10/17 15:55:49;;;;;;;;;;;;;;;;;;5035300;28;7237;-62
2022/10/17 15:58:17;;;;;;;;;;;;;;;;;;5034844;28;7236;-62
2022/10/17 16:00:44;;;;;;;;;;;;;;;;;;5035580;28;7040;-62
2022/10/17 16:03:09;;;;;;;;;;;;;;;;;;5035576;28;7335;-62
2022/10/17 16:05:35;;;;;;;;;;;;;;;;;;5034757;28;7043;-62
2022/10/17 16:08:01;;;;;;;;;;;;;;;;;;5035587;28;7182;-62
2022/10/17 16:10:27;;;;;;;;;;;;;;;;;;5035471;28;6933;-62
2022/10/17 16:12:53;;;;;;;;;;;;;;;;;;5034884;28;7194;-62
2022/10/17 16:15:24;;;;;;;;;;;;;;;;;;5035361;28;7246;-62
2022/10/17 16:17:53;;;;;;;;;;;;;;;;;;5035243;28;7788;-62
2022/10/17 16:20:19;;;;;;;;;;;;;;;;;;5034847;28;7460;-62
2022/10/17 16:22:46;;;;;;;;;;;;;;;;;;5035555;28;7413;-62
2022/10/17 16:25:18;;;;;;;;;;;;;;;;;;5035257;28;7093;-62
2022/10/17 16:27:46;;;;;;;;;;;;;;;;;;5034483;28;7177;-62
2022/10/17 16:30:12;;;;;;;;;;;;;;;;;;5035453;28;6979;-62
2022/10/17 16:32:37;;;;;;;;;;;;;;;;;;5034838;28;7148;-62
2022/10/17 16:35:04;;;;;;;;;;;;;;;;;;5034428;28;7169;-62
2022/10/17 16:37:30;;;;;;;;;;;;;;;;;;5034666;28;6968;-62
2022/10/17 16:39:56;;;;;;;;;;;;;;;;;;5033518;28;7159;-62
2022/10/17 16:42:21;;;;;;;;;;;;;;;;;;5032408;28;7011;-62
2022/10/17 16:44:48;;;;;;;;;;;;;;;;;;5033061;28;7086;-62
2022/10/17 16:47:14;;;;;;;;;;;;;;;;;;5034881;28;6991;-62
2022/10/17 16:49:39;;;;;;;;;;;;;;;;;;5034265;28;7338;-62
2022/10/17 16:52:05;;;;;;;;;;;;;;;;;;5034961;28;7164;-61
2022/10/17 16:54:31;;;;;;;;;;;;;;;;;;5034241;28;7198;-62
2022/10/17 16:56:56;;;;;;;;;;;;;;;;;;5033824;28;7274;-62
2022/10/17 16:59:22;;;;;;;;;;;;;;;;;;5034416;28;7001;-62
2022/10/17 17:01:48;;;;;;;;;;;;;;;;;;5034611;28;7204;-62
2022/10/17 17:04:14;;;;;;;;;;;;;;;;;;5033944;28;6947;-62
2022/10/17 17:06:39;;;;;;;;;;;;;;;;;;5034309;28;6947;-62
2022/10/17 17:09:05;;;;;;;;;;;;;;;;;;5034249;28;6926;-62
2022/10/17 17:11:31;;;;;;;;;;;;;;;;;;5033705;28;7041;-62
2022/10/17 17:13:57;;;;;;;;;;;;;;;;;;5034054;28;7042;-62
2022/10/17 17:16:24;;;;;;;;;;;;;;;;;;5034093;28;6976;-62